首页
METAR-TAF:

METAR-TAF

机场 :

埃尔迈拉 / 康宁, 紐約州, 美国

纬度: 42-09-23N, 经度: 076-54-10W, 海拔: 291米

当前天气观测

该预报发布于25分钟前的18:53 UTC
风速7节,风向西转西北
温度 28°C
湿度 55%
气压 1014 hPa
能見度: 16.1公里
少量云层高于6000英尺
散云层高于8000英尺
阴天层高于10000英尺

METAR: KELM 041853Z 30007KT 10SM FEW060 SCT080 OVC100 28/18 A2995 RMK AO2 SLP135 T02830183

时间: 15:18 (19:18 UTC)

预报

该预报发布于1小时和49分钟前的17:29 UTC
预报有效从04日的 18点(UTC)到 05日的 18点(UTC)
风速5节,风向北转东北
能見度: 10公里
多云层高于5000英尺
从 05日的 0100点(UTC)
风速3节,风向多变
能見度: 10公里
天空无云
从 05日的 0600点(UTC)
风速3节,风向多变
能見度: 4.8公里
天空无云
轻雾
短暂存在
从 05日的 08点(UTC)到 05日的 12点(UTC)
能見度: 3.2公里
散云层高于200英尺
轻雾
从 05日的 1300点(UTC)
风速4节,风向西
能見度: 10公里
少量云层高于5000英尺

TAF: KELM 041729Z 0418/0518 02005KT P6SM BKN050 FM050100 VRB03KT P6SM SKC FM050600 VRB03KT 3SM BR SKC TEMPO 0508/0512 2SM BR SCT002 FM051300 26004KT P6SM FEW050

超过4000个机场的气象观测和天气预报(METAR&TAF报告)。

可查询的气象台以黄色和红色小点在地图上表示。

将鼠标移到小点上方,可查看气象台名称。

然后点击查看天气观测和预报。

如需切换地图:点击带黑十字的绿色按钮放大地图;点击带横线的绿色按钮缩小地图;或者点击绿色箭头查看邻近地区的地图。


METAR-TAF: